Egnar, Colorado
Current Conditions -  °F | °C
As of 1:15 AM on Friday 28 Nov 2014 (Local Time) from KAIB Reporting Station
Clear Clear  
Wind Chill: 32°   Ceiling: Unl
Heat Index: 32°   Visibility: 10mi
Dew Point: 21°   Wind: 3mph
Humidity: 64%   Direction: 150°SSE
Pressure: 30.32"   Gusts: NA
Location:  37.92°N, 108.94°W
Report Text: KAIB 280815Z AUTO 15003KT 10SM CLR 00/M06 A3032 RMK AO2
Loading
Personal Weather Stations






























Interactive Weather Map New forecast layout! Learn more

10-Day Weather Forecast

Advertisements
Track Severe Weather on mobile